Beauvallon, South Africa
Current Conditions -  °F | °C
As of 10:00 PM on Monday 26 Jan 2015 (Local Time) from FAUP Reporting Station
NA  
Wind Chill: 77°   Ceiling: NA
Heat Index: 79°   Visibility: NA
Dew Point: 59°   Wind: 7mph
Humidity: 54%   Direction: 170°S
Pressure: 30"   Gusts: NA
Location:  28.5°S, 16.63°E
Report Text: FAUP 262000Z AUTO 17006KT //// // ////// 25/15 Q1016
Loading
Personal Weather Stations






























Interactive Weather Map New forecast layout! Learn more

10-Day Weather Forecast

Advertisements
Track Severe Weather on mobile